sensor_id;sensor_type;location;lat;lon;timestamp;P1;durP1;ratioP1;P2;durP2;ratioP2
59239;SDS011;45010;53.640;10.578;2024-03-06T00:00:27;1.70;;;1.50;;
59239;SDS011;45010;53.640;10.578;2024-03-06T00:03:27;1.95;;;1.80;;
59239;SDS011;45010;53.640;10.578;2024-03-06T00:06:27;1.98;;;1.70;;
59239;SDS011;45010;53.640;10.578;2024-03-06T00:09:28;3.05;;;1.88;;
59239;SDS011;45010;53.640;10.578;2024-03-06T00:12:28;1.77;;;1.50;;
59239;SDS011;45010;53.640;10.578;2024-03-06T00:15:28;1.95;;;1.75;;
59239;SDS011;45010;53.640;10.578;2024-03-06T00:18:29;1.70;;;1.60;;
59239;SDS011;45010;53.640;10.578;2024-03-06T00:21:29;1.70;;;1.50;;
59239;SDS011;45010;53.640;10.578;2024-03-06T00:24:29;1.70;;;1.50;;
59239;SDS011;45010;53.640;10.578;2024-03-06T00:27:30;1.95;;;1.73;;
59239;SDS011;45010;53.640;10.578;2024-03-06T00:30:30;1.77;;;1.40;;
59239;SDS011;45010;53.640;10.578;2024-03-06T00:33:31;2.00;;;1.80;;
59239;SDS011;45010;53.640;10.578;2024-03-06T00:36:31;2.03;;;1.63;;
59239;SDS011;45010;53.640;10.578;2024-03-06T00:39:31;2.05;;;1.85;;
59239;SDS011;45010;53.640;10.578;2024-03-06T00:42:32;1.92;;;1.73;;
59239;SDS011;45010;53.640;10.578;2024-03-06T00:45:33;1.95;;;1.60;;
59239;SDS011;45010;53.640;10.578;2024-03-06T00:48:33;2.50;;;1.42;;
59239;SDS011;45010;53.640;10.578;2024-03-06T00:51:33;1.42;;;1.33;;
59239;SDS011;45010;53.640;10.578;2024-03-06T00:54:37;1.90;;;1.67;;
59239;SDS011;45010;53.640;10.578;2024-03-06T00:57:37;2.40;;;1.60;;
59239;SDS011;45010;53.640;10.578;2024-03-06T01:00:37;1.73;;;1.60;;
59239;SDS011;45010;53.640;10.578;2024-03-06T01:03:39;2.15;;;1.95;;
59239;SDS011;45010;53.640;10.578;2024-03-06T01:06:39;1.60;;;1.50;;
59239;SDS011;45010;53.640;10.578;2024-03-06T01:09:40;1.48;;;1.38;;
59239;SDS011;45010;53.640;10.578;2024-03-06T01:12:40;2.00;;;1.77;;
59239;SDS011;45010;53.640;10.578;2024-03-06T01:15:40;1.60;;;1.45;;
59239;SDS011;45010;53.640;10.578;2024-03-06T01:18:41;2.80;;;1.50;;
59239;SDS011;45010;53.640;10.578;2024-03-06T01:21:41;1.52;;;1.40;;
59239;SDS011;45010;53.640;10.578;2024-03-06T01:24:41;1.45;;;1.35;;
59239;SDS011;45010;53.640;10.578;2024-03-06T01:27:42;1.88;;;1.58;;
59239;SDS011;45010;53.640;10.578;2024-03-06T01:30:42;1.83;;;1.63;;
59239;SDS011;45010;53.640;10.578;2024-03-06T01:33:42;1.77;;;1.55;;
59239;SDS011;45010;53.640;10.578;2024-03-06T01:36:43;1.95;;;1.75;;
59239;SDS011;45010;53.640;10.578;2024-03-06T01:39:43;1.42;;;1.30;;
59239;SDS011;45010;53.640;10.578;2024-03-06T01:42:43;1.52;;;1.40;;
59239;SDS011;45010;53.640;10.578;2024-03-06T01:45:47;1.35;;;1.25;;
59239;SDS011;45010;53.640;10.578;2024-03-06T01:48:48;1.65;;;1.50;;
59239;SDS011;45010;53.640;10.578;2024-03-06T01:51:51;1.65;;;1.55;;
59239;SDS011;45010;53.640;10.578;2024-03-06T01:54:53;1.45;;;1.30;;
59239;SDS011;45010;53.640;10.578;2024-03-06T01:57:54;1.63;;;1.52;;
59239;SDS011;45010;53.640;10.578;2024-03-06T02:00:54;1.55;;;1.45;;
59239;SDS011;45010;53.640;10.578;2024-03-06T02:03:55;1.52;;;1.42;;
59239;SDS011;45010;53.640;10.578;2024-03-06T02:06:56;1.77;;;1.50;;
59239;SDS011;45010;53.640;10.578;2024-03-06T02:09:56;1.50;;;1.40;;
59239;SDS011;45010;53.640;10.578;2024-03-06T02:12:57;1.60;;;1.50;;
59239;SDS011;45010;53.640;10.578;2024-03-06T02:15:58;1.33;;;1.23;;
59239;SDS011;45010;53.640;10.578;2024-03-06T02:18:58;1.45;;;1.35;;
59239;SDS011;45010;53.640;10.578;2024-03-06T02:21:59;1.90;;;1.70;;
59239;SDS011;45010;53.640;10.578;2024-03-06T02:24:59;2.40;;;1.35;;
59239;SDS011;45010;53.640;10.578;2024-03-06T02:27:59;1.38;;;1.27;;
59239;SDS011;45010;53.640;10.578;2024-03-06T02:31:00;1.60;;;1.50;;
59239;SDS011;45010;53.640;10.578;2024-03-06T02:34:00;1.60;;;1.20;;
59239;SDS011;45010;53.640;10.578;2024-03-06T02:37:04;1.80;;;1.60;;
59239;SDS011;45010;53.640;10.578;2024-03-06T02:40:05;1.30;;;1.20;;
59239;SDS011;45010;53.640;10.578;2024-03-06T02:43:07;1.63;;;1.10;;
59239;SDS011;45010;53.640;10.578;2024-03-06T02:46:07;1.80;;;1.58;;
59239;SDS011;45010;53.640;10.578;2024-03-06T02:49:07;1.75;;;1.40;;
59239;SDS011;45010;53.640;10.578;2024-03-06T02:52:08;1.40;;;1.30;;
59239;SDS011;45010;53.640;10.578;2024-03-06T02:55:08;1.50;;;1.40;;
59239;SDS011;45010;53.640;10.578;2024-03-06T02:58:09;1.20;;;1.10;;
59239;SDS011;45010;53.640;10.578;2024-03-06T03:01:09;1.13;;;1.02;;
59239;SDS011;45010;53.640;10.578;2024-03-06T03:04:10;2.78;;;1.42;;
59239;SDS011;45010;53.640;10.578;2024-03-06T03:07:11;1.25;;;1.15;;
59239;SDS011;45010;53.640;10.578;2024-03-06T03:10:12;1.30;;;1.17;;
59239;SDS011;45010;53.640;10.578;2024-03-06T03:13:12;1.95;;;1.55;;
59239;SDS011;45010;53.640;10.578;2024-03-06T03:16:16;2.97;;;1.52;;
59239;SDS011;45010;53.640;10.578;2024-03-06T03:19:17;1.63;;;1.52;;
59239;SDS011;45010;53.640;10.578;2024-03-06T03:22:18;1.10;;;1.00;;
59239;SDS011;45010;53.640;10.578;2024-03-06T03:25:18;1.50;;;1.15;;
59239;SDS011;45010;53.640;10.578;2024-03-06T03:28:20;1.75;;;1.20;;
59239;SDS011;45010;53.640;10.578;2024-03-06T03:31:21;1.40;;;1.30;;
59239;SDS011;45010;53.640;10.578;2024-03-06T03:34:22;1.73;;;1.30;;
59239;SDS011;45010;53.640;10.578;2024-03-06T03:37:22;1.27;;;1.08;;
59239;SDS011;45010;53.640;10.578;2024-03-06T03:40:23;1.10;;;1.00;;
59239;SDS011;45010;53.640;10.578;2024-03-06T03:43:25;1.45;;;1.35;;
59239;SDS011;45010;53.640;10.578;2024-03-06T03:46:26;1.48;;;1.02;;
59239;SDS011;45010;53.640;10.578;2024-03-06T03:49:26;1.10;;;1.00;;
59239;SDS011;45010;53.640;10.578;2024-03-06T03:52:27;1.50;;;1.20;;
59239;SDS011;45010;53.640;10.578;2024-03-06T03:55:27;1.13;;;0.95;;
59239;SDS011;45010;53.640;10.578;2024-03-06T03:58:27;1.55;;;1.20;;
59239;SDS011;45010;53.640;10.578;2024-03-06T04:01:28;1.95;;;1.20;;
59239;SDS011;45010;53.640;10.578;2024-03-06T04:04:28;1.30;;;1.20;;
59239;SDS011;45010;53.640;10.578;2024-03-06T04:07:29;1.17;;;1.08;;
59239;SDS011;45010;53.640;10.578;2024-03-06T04:10:29;1.17;;;1.08;;
59239;SDS011;45010;53.640;10.578;2024-03-06T04:13:29;1.33;;;1.17;;
59239;SDS011;45010;53.640;10.578;2024-03-06T04:16:30;1.15;;;1.05;;
59239;SDS011;45010;53.640;10.578;2024-03-06T04:19:30;0.88;;;0.88;;
59239;SDS011;45010;53.640;10.578;2024-03-06T04:22:31;1.20;;;1.10;;
59239;SDS011;45010;53.640;10.578;2024-03-06T04:25:31;1.27;;;1.17;;
59239;SDS011;45010;53.640;10.578;2024-03-06T04:28:32;1.15;;;1.05;;
59239;SDS011;45010;53.640;10.578;2024-03-06T04:31:32;0.95;;;0.90;;
59239;SDS011;45010;53.640;10.578;2024-03-06T04:34:35;1.00;;;0.90;;
59239;SDS011;45010;53.640;10.578;2024-03-06T04:37:35;0.77;;;0.77;;
59239;SDS011;45010;53.640;10.578;2024-03-06T04:40:35;1.20;;;1.10;;
59239;SDS011;45010;53.640;10.578;2024-03-06T04:43:36;0.93;;;0.93;;
59239;SDS011;45010;53.640;10.578;2024-03-06T04:46:36;1.10;;;1.00;;
59239;SDS011;45010;53.640;10.578;2024-03-06T04:49:37;1.00;;;1.00;;
59239;SDS011;45010;53.640;10.578;2024-03-06T04:52:37;1.40;;;1.30;;
59239;SDS011;45010;53.640;10.578;2024-03-06T04:55:38;1.50;;;1.15;;
59239;SDS011;45010;53.640;10.578;2024-03-06T04:58:38;1.35;;;1.15;;
59239;SDS011;45010;53.640;10.578;2024-03-06T05:01:39;1.20;;;1.10;;
59239;SDS011;45010;53.640;10.578;2024-03-06T05:04:39;1.75;;;1.20;;
59239;SDS011;45010;53.640;10.578;2024-03-06T05:07:39;1.30;;;1.10;;
59239;SDS011;45010;53.640;10.578;2024-03-06T05:10:40;1.15;;;0.95;;
59239;SDS011;45010;53.640;10.578;2024-03-06T05:13:40;1.38;;;1.10;;
59239;SDS011;45010;53.640;10.578;2024-03-06T05:16:40;1.13;;;1.02;;
59239;SDS011;45010;53.640;10.578;2024-03-06T05:19:41;1.13;;;1.02;;
59239;SDS011;45010;53.640;10.578;2024-03-06T05:22:41;1.20;;;1.08;;
59239;SDS011;45010;53.640;10.578;2024-03-06T05:25:41;1.30;;;1.00;;
59239;SDS011;45010;53.640;10.578;2024-03-06T05:28:42;1.13;;;1.02;;
59239;SDS011;45010;53.640;10.578;2024-03-06T05:31:42;1.15;;;1.05;;
59239;SDS011;45010;53.640;10.578;2024-03-06T05:34:42;1.20;;;1.10;;
59239;SDS011;45010;53.640;10.578;2024-03-06T05:37:43;1.27;;;1.10;;
59239;SDS011;45010;53.640;10.578;2024-03-06T05:40:44;0.98;;;0.98;;
59239;SDS011;45010;53.640;10.578;2024-03-06T05:43:45;1.10;;;1.00;;
59239;SDS011;45010;53.640;10.578;2024-03-06T05:46:45;1.10;;;0.98;;
59239;SDS011;45010;53.640;10.578;2024-03-06T05:49:47;1.40;;;1.30;;
59239;SDS011;45010;53.640;10.578;2024-03-06T05:52:47;1.10;;;1.00;;
59239;SDS011;45010;53.640;10.578;2024-03-06T05:55:48;1.30;;;1.00;;
59239;SDS011;45010;53.640;10.578;2024-03-06T05:58:48;1.23;;;1.10;;
59239;SDS011;45010;53.640;10.578;2024-03-06T06:01:49;1.02;;;0.98;;
59239;SDS011;45010;53.640;10.578;2024-03-06T06:04:49;0.98;;;0.98;;
59239;SDS011;45010;53.640;10.578;2024-03-06T06:07:50;1.33;;;1.05;;
59239;SDS011;45010;53.640;10.578;2024-03-06T06:10:51;1.33;;;0.90;;
59239;SDS011;45010;53.640;10.578;2024-03-06T06:13:54;0.80;;;0.80;;
59239;SDS011;45010;53.640;10.578;2024-03-06T06:16:55;1.30;;;1.20;;
59239;SDS011;45010;53.640;10.578;2024-03-06T06:19:56;1.23;;;0.93;;
59239;SDS011;45010;53.640;10.578;2024-03-06T06:22:57;1.17;;;1.00;;
59239;SDS011;45010;53.640;10.578;2024-03-06T06:25:58;1.73;;;1.20;;
59239;SDS011;45010;53.640;10.578;2024-03-06T06:28:58;2.67;;;0.98;;
59239;SDS011;45010;53.640;10.578;2024-03-06T06:31:58;1.40;;;1.00;;
59239;SDS011;45010;53.640;10.578;2024-03-06T06:34:58;1.17;;;1.00;;
59239;SDS011;45010;53.640;10.578;2024-03-06T06:38:00;1.20;;;1.10;;
59239;SDS011;45010;53.640;10.578;2024-03-06T06:41:01;1.35;;;1.10;;
59239;SDS011;45010;53.640;10.578;2024-03-06T06:44:01;1.23;;;1.10;;
59239;SDS011;45010;53.640;10.578;2024-03-06T06:47:02;1.27;;;1.17;;
59239;SDS011;45010;53.640;10.578;2024-03-06T06:50:03;1.40;;;1.30;;
59239;SDS011;45010;53.640;10.578;2024-03-06T06:53:09;1.05;;;1.00;;
59239;SDS011;45010;53.640;10.578;2024-03-06T06:56:09;1.30;;;1.20;;
59239;SDS011;45010;53.640;10.578;2024-03-06T06:59:09;2.55;;;1.25;;
59239;SDS011;45010;53.640;10.578;2024-03-06T07:02:10;1.23;;;1.13;;
59239;SDS011;45010;53.640;10.578;2024-03-06T07:05:10;1.83;;;1.17;;
59239;SDS011;45010;53.640;10.578;2024-03-06T07:08:11;1.67;;;1.20;;
59239;SDS011;45010;53.640;10.578;2024-03-06T07:11:11;2.08;;;1.20;;
59239;SDS011;45010;53.640;10.578;2024-03-06T07:14:12;1.42;;;1.17;;
59239;SDS011;45010;53.640;10.578;2024-03-06T07:17:13;1.40;;;1.30;;
59239;SDS011;45010;53.640;10.578;2024-03-06T07:20:13;1.42;;;1.33;;
59239;SDS011;45010;53.640;10.578;2024-03-06T07:23:14;2.00;;;1.20;;
59239;SDS011;45010;53.640;10.578;2024-03-06T07:26:14;2.90;;;1.02;;
59239;SDS011;45010;53.640;10.578;2024-03-06T07:29:14;2.03;;;1.17;;
59239;SDS011;45010;53.640;10.578;2024-03-06T07:32:15;1.67;;;1.10;;
59239;SDS011;45010;53.640;10.578;2024-03-06T07:35:15;2.42;;;1.30;;
59239;SDS011;45010;53.640;10.578;2024-03-06T07:38:15;1.38;;;1.27;;
59239;SDS011;45010;53.640;10.578;2024-03-06T07:41:16;2.20;;;1.10;;
59239;SDS011;45010;53.640;10.578;2024-03-06T07:44:16;1.55;;;1.10;;
59239;SDS011;45010;53.640;10.578;2024-03-06T07:47:16;1.77;;;1.30;;
59239;SDS011;45010;53.640;10.578;2024-03-06T07:50:17;2.78;;;1.05;;
59239;SDS011;45010;53.640;10.578;2024-03-06T07:53:20;1.45;;;1.10;;
59239;SDS011;45010;53.640;10.578;2024-03-06T07:56:20;1.00;;;0.90;;
59239;SDS011;45010;53.640;10.578;2024-03-06T07:59:21;2.90;;;1.00;;
59239;SDS011;45010;53.640;10.578;2024-03-06T08:02:21;1.35;;;0.90;;
59239;SDS011;45010;53.640;10.578;2024-03-06T08:05:22;1.02;;;0.93;;
59239;SDS011;45010;53.640;10.578;2024-03-06T08:08:22;1.98;;;1.00;;
59239;SDS011;45010;53.640;10.578;2024-03-06T08:11:24;1.27;;;1.10;;
59239;SDS011;45010;53.640;10.578;2024-03-06T08:14:24;2.08;;;1.13;;
59239;SDS011;45010;53.640;10.578;2024-03-06T08:17:25;1.73;;;1.05;;
59239;SDS011;45010;53.640;10.578;2024-03-06T08:20:26;1.38;;;1.27;;
59239;SDS011;45010;53.640;10.578;2024-03-06T08:23:27;1.20;;;1.10;;
59239;SDS011;45010;53.640;10.578;2024-03-06T08:26:27;1.08;;;0.90;;
59239;SDS011;45010;53.640;10.578;2024-03-06T08:29:28;1.48;;;1.10;;
59239;SDS011;45010;53.640;10.578;2024-03-06T08:32:28;1.45;;;1.10;;
59239;SDS011;45010;53.640;10.578;2024-03-06T08:35:29;1.25;;;1.10;;
59239;SDS011;45010;53.640;10.578;2024-03-06T08:38:29;1.30;;;1.08;;
59239;SDS011;45010;53.640;10.578;2024-03-06T08:41:30;1.30;;;1.08;;
59239;SDS011;45010;53.640;10.578;2024-03-06T08:44:31;1.27;;;1.10;;
59239;SDS011;45010;53.640;10.578;2024-03-06T08:47:31;2.60;;;1.13;;
59239;SDS011;45010;53.640;10.578;2024-03-06T08:50:32;1.30;;;1.20;;
59239;SDS011;45010;53.640;10.578;2024-03-06T08:53:32;1.55;;;1.00;;
59239;SDS011;45010;53.640;10.578;2024-03-06T08:56:32;0.90;;;0.90;;
59239;SDS011;45010;53.640;10.578;2024-03-06T08:59:34;3.03;;;1.17;;
59239;SDS011;45010;53.640;10.578;2024-03-06T09:02:35;1.30;;;1.05;;
59239;SDS011;45010;53.640;10.578;2024-03-06T09:05:35;2.35;;;1.00;;
59239;SDS011;45010;53.640;10.578;2024-03-06T09:08:36;1.20;;;1.05;;
59239;SDS011;45010;53.640;10.578;2024-03-06T09:11:36;1.20;;;1.10;;
59239;SDS011;45010;53.640;10.578;2024-03-06T09:14:37;1.30;;;1.00;;
59239;SDS011;45010;53.640;10.578;2024-03-06T09:17:38;2.63;;;1.02;;
59239;SDS011;45010;53.640;10.578;2024-03-06T09:20:38;1.90;;;1.17;;
59239;SDS011;45010;53.640;10.578;2024-03-06T09:23:39;1.88;;;1.27;;
59239;SDS011;45010;53.640;10.578;2024-03-06T09:26:39;1.30;;;1.17;;
59239;SDS011;45010;53.640;10.578;2024-03-06T09:29:39;1.33;;;1.23;;
59239;SDS011;45010;53.640;10.578;2024-03-06T09:32:41;1.25;;;1.10;;
59239;SDS011;45010;53.640;10.578;2024-03-06T09:35:42;1.90;;;1.70;;
59239;SDS011;45010;53.640;10.578;2024-03-06T09:38:45;2.00;;;1.60;;
59239;SDS011;45010;53.640;10.578;2024-03-06T09:41:46;1.40;;;1.02;;
59239;SDS011;45010;53.640;10.578;2024-03-06T09:44:47;1.55;;;1.10;;
59239;SDS011;45010;53.640;10.578;2024-03-06T09:47:48;1.02;;;1.02;;
59239;SDS011;45010;53.640;10.578;2024-03-06T09:50:50;3.00;;;1.50;;
59239;SDS011;45010;53.640;10.578;2024-03-06T09:53:52;1.55;;;1.27;;
59239;SDS011;45010;53.640;10.578;2024-03-06T09:56:52;1.30;;;1.13;;
59239;SDS011;45010;53.640;10.578;2024-03-06T09:59:55;2.00;;;1.30;;
59239;SDS011;45010;53.640;10.578;2024-03-06T10:02:59;2.33;;;1.38;;
59239;SDS011;45010;53.640;10.578;2024-03-06T10:06:03;3.33;;;1.30;;
59239;SDS011;45010;53.640;10.578;2024-03-06T10:09:04;1.42;;;1.33;;
59239;SDS011;45010;53.640;10.578;2024-03-06T10:12:08;1.45;;;1.35;;
59239;SDS011;45010;53.640;10.578;2024-03-06T10:15:12;1.80;;;1.45;;
59239;SDS011;45010;53.640;10.578;2024-03-06T10:18:15;1.65;;;1.50;;
59239;SDS011;45010;53.640;10.578;2024-03-06T10:21:19;2.25;;;1.10;;
59239;SDS011;45010;53.640;10.578;2024-03-06T10:24:31;1.60;;;1.35;;
59239;SDS011;45010;53.640;10.578;2024-03-06T10:27:32;3.45;;;1.20;;
59239;SDS011;45010;53.640;10.578;2024-03-06T10:30:33;2.63;;;1.45;;
59239;SDS011;45010;53.640;10.578;2024-03-06T10:33:35;3.85;;;1.33;;
59239;SDS011;45010;53.640;10.578;2024-03-06T10:36:37;4.40;;;1.52;;
59239;SDS011;45010;53.640;10.578;2024-03-06T10:39:39;3.17;;;1.40;;
59239;SDS011;45010;53.640;10.578;2024-03-06T10:42:44;1.40;;;1.02;;
59239;SDS011;45010;53.640;10.578;2024-03-06T10:45:49;3.65;;;1.35;;
59239;SDS011;45010;53.640;10.578;2024-03-06T10:48:50;1.65;;;1.50;;
59239;SDS011;45010;53.640;10.578;2024-03-06T10:51:52;1.60;;;1.50;;
59239;SDS011;45010;53.640;10.578;2024-03-06T10:54:54;2.05;;;1.30;;
59239;SDS011;45010;53.640;10.578;2024-03-06T10:57:56;1.42;;;1.33;;
59239;SDS011;45010;53.640;10.578;2024-03-06T11:00:58;2.33;;;1.20;;
59239;SDS011;45010;53.640;10.578;2024-03-06T11:04:00;1.50;;;1.40;;
59239;SDS011;45010;53.640;10.578;2024-03-06T11:07:01;2.90;;;1.80;;
59239;SDS011;45010;53.640;10.578;2024-03-06T11:10:03;3.08;;;1.80;;
59239;SDS011;45010;53.640;10.578;2024-03-06T11:13:08;11.40;;;2.28;;
59239;SDS011;45010;53.640;10.578;2024-03-06T11:16:29;6.93;;;2.20;;
59239;SDS011;45010;53.640;10.578;2024-03-06T11:20:07;5.28;;;1.88;;
59239;SDS011;45010;53.640;10.578;2024-03-06T11:26:05;4.28;;;1.92;;
59239;SDS011;45010;53.640;10.578;2024-03-06T11:29:07;3.40;;;1.67;;
59239;SDS011;45010;53.640;10.578;2024-03-06T11:32:07;3.65;;;2.17;;
59239;SDS011;45010;53.640;10.578;2024-03-06T11:35:08;5.63;;;2.38;;
59239;SDS011;45010;53.640;10.578;2024-03-06T11:38:08;5.22;;;2.03;;
59239;SDS011;45010;53.640;10.578;2024-03-06T11:41:09;3.60;;;1.70;;
59239;SDS011;45010;53.640;10.578;2024-03-06T11:44:12;3.70;;;2.00;;
59239;SDS011;45010;53.640;10.578;2024-03-06T11:47:15;4.20;;;1.77;;
59239;SDS011;45010;53.640;10.578;2024-03-06T11:50:15;6.00;;;1.80;;
59239;SDS011;45010;53.640;10.578;2024-03-06T11:53:15;4.30;;;1.90;;
59239;SDS011;45010;53.640;10.578;2024-03-06T11:56:18;3.50;;;1.90;;
59239;SDS011;45010;53.640;10.578;2024-03-06T11:59:23;14.88;;;2.20;;
59239;SDS011;45010;53.640;10.578;2024-03-06T12:02:24;4.35;;;1.60;;
59239;SDS011;45010;53.640;10.578;2024-03-06T12:05:25;4.53;;;1.95;;
59239;SDS011;45010;53.640;10.578;2024-03-06T12:08:26;7.18;;;2.28;;
59239;SDS011;45010;53.640;10.578;2024-03-06T12:11:27;3.40;;;1.73;;
59239;SDS011;45010;53.640;10.578;2024-03-06T12:14:28;6.30;;;1.75;;
59239;SDS011;45010;53.640;10.578;2024-03-06T12:17:29;5.70;;;1.98;;
59239;SDS011;45010;53.640;10.578;2024-03-06T12:20:29;2.80;;;1.83;;
59239;SDS011;45010;53.640;10.578;2024-03-06T12:23:30;2.88;;;2.00;;
59239;SDS011;45010;53.640;10.578;2024-03-06T12:26:30;4.28;;;1.90;;
59239;SDS011;45010;53.640;10.578;2024-03-06T12:29:31;3.80;;;1.88;;
59239;SDS011;45010;53.640;10.578;2024-03-06T12:32:33;2.65;;;1.92;;
59239;SDS011;45010;53.640;10.578;2024-03-06T12:35:34;4.18;;;1.58;;
59239;SDS011;45010;53.640;10.578;2024-03-06T12:38:34;2.28;;;1.95;;
59239;SDS011;45010;53.640;10.578;2024-03-06T12:41:34;2.95;;;1.90;;
59239;SDS011;45010;53.640;10.578;2024-03-06T12:44:35;3.42;;;1.70;;
59239;SDS011;45010;53.640;10.578;2024-03-06T12:47:35;4.60;;;2.22;;
59239;SDS011;45010;53.640;10.578;2024-03-06T12:50:36;2.60;;;2.03;;
59239;SDS011;45010;53.640;10.578;2024-03-06T12:53:36;6.38;;;1.80;;
59239;SDS011;45010;53.640;10.578;2024-03-06T12:56:36;5.32;;;2.20;;
59239;SDS011;45010;53.640;10.578;2024-03-06T12:59:37;3.50;;;2.00;;
59239;SDS011;45010;53.640;10.578;2024-03-06T13:02:37;13.35;;;2.85;;
59239;SDS011;45010;53.640;10.578;2024-03-06T13:05:37;4.20;;;2.30;;
59239;SDS011;45010;53.640;10.578;2024-03-06T13:08:38;2.67;;;2.07;;
59239;SDS011;45010;53.640;10.578;2024-03-06T13:11:39;2.35;;;2.10;;
59239;SDS011;45010;53.640;10.578;2024-03-06T13:14:42;4.28;;;2.00;;
59239;SDS011;45010;53.640;10.578;2024-03-06T13:17:42;3.85;;;1.83;;
59239;SDS011;45010;53.640;10.578;2024-03-06T13:20:42;4.63;;;1.97;;
59239;SDS011;45010;53.640;10.578;2024-03-06T13:23:43;3.60;;;2.08;;
59239;SDS011;45010;53.640;10.578;2024-03-06T13:26:44;4.05;;;2.08;;
59239;SDS011;45010;53.640;10.578;2024-03-06T13:29:44;3.97;;;2.10;;
59239;SDS011;45010;53.640;10.578;2024-03-06T13:32:44;4.10;;;1.90;;
59239;SDS011;45010;53.640;10.578;2024-03-06T13:35:45;2.90;;;1.90;;
59239;SDS011;45010;53.640;10.578;2024-03-06T13:38:46;2.90;;;2.20;;
59239;SDS011;45010;53.640;10.578;2024-03-06T13:41:46;3.00;;;1.90;;
59239;SDS011;45010;53.640;10.578;2024-03-06T13:44:46;2.35;;;1.90;;
59239;SDS011;45010;53.640;10.578;2024-03-06T13:47:46;3.13;;;1.90;;
59239;SDS011;45010;53.640;10.578;2024-03-06T13:50:48;2.17;;;1.80;;
59239;SDS011;45010;53.640;10.578;2024-03-06T13:53:49;2.45;;;1.85;;
59239;SDS011;45010;53.640;10.578;2024-03-06T13:56:49;3.42;;;1.80;;
59239;SDS011;45010;53.640;10.578;2024-03-06T13:59:50;2.28;;;1.73;;
59239;SDS011;45010;53.640;10.578;2024-03-06T14:02:50;4.07;;;2.00;;
59239;SDS011;45010;53.640;10.578;2024-03-06T14:05:51;3.55;;;1.92;;
59239;SDS011;45010;53.640;10.578;2024-03-06T14:08:51;2.95;;;1.95;;
59239;SDS011;45010;53.640;10.578;2024-03-06T14:11:52;4.40;;;1.80;;
59239;SDS011;45010;53.640;10.578;2024-03-06T14:14:53;3.17;;;1.80;;
59239;SDS011;45010;53.640;10.578;2024-03-06T14:17:53;2.53;;;1.70;;
59239;SDS011;45010;53.640;10.578;2024-03-06T14:20:54;2.63;;;2.00;;
59239;SDS011;45010;53.640;10.578;2024-03-06T14:23:54;2.40;;;1.90;;
59239;SDS011;45010;53.640;10.578;2024-03-06T14:26:54;3.60;;;1.90;;
59239;SDS011;45010;53.640;10.578;2024-03-06T14:29:55;3.03;;;2.15;;
59239;SDS011;45010;53.640;10.578;2024-03-06T14:32:55;3.67;;;2.00;;
59239;SDS011;45010;53.640;10.578;2024-03-06T14:35:56;3.70;;;1.60;;
59239;SDS011;45010;53.640;10.578;2024-03-06T14:38:56;3.63;;;1.80;;
59239;SDS011;45010;53.640;10.578;2024-03-06T14:41:56;2.20;;;1.70;;
59239;SDS011;45010;53.640;10.578;2024-03-06T14:44:57;2.20;;;1.50;;
59239;SDS011;45010;53.640;10.578;2024-03-06T14:47:58;2.15;;;1.77;;
59239;SDS011;45010;53.640;10.578;2024-03-06T14:50:59;2.00;;;1.70;;
59239;SDS011;45010;53.640;10.578;2024-03-06T14:53:59;3.22;;;1.88;;
59239;SDS011;45010;53.640;10.578;2024-03-06T14:57:00;2.42;;;1.88;;
59239;SDS011;45010;53.640;10.578;2024-03-06T15:00:01;3.35;;;1.95;;
59239;SDS011;45010;53.640;10.578;2024-03-06T15:03:01;3.20;;;1.52;;
59239;SDS011;45010;53.640;10.578;2024-03-06T15:06:01;3.03;;;1.83;;
59239;SDS011;45010;53.640;10.578;2024-03-06T15:09:02;4.00;;;1.83;;
59239;SDS011;45010;53.640;10.578;2024-03-06T15:12:05;3.90;;;1.80;;
59239;SDS011;45010;53.640;10.578;2024-03-06T15:15:05;2.05;;;1.77;;
59239;SDS011;45010;53.640;10.578;2024-03-06T15:18:06;3.25;;;1.92;;
59239;SDS011;45010;53.640;10.578;2024-03-06T15:21:06;2.85;;;1.70;;
59239;SDS011;45010;53.640;10.578;2024-03-06T15:24:07;2.25;;;1.52;;
59239;SDS011;45010;53.640;10.578;2024-03-06T15:27:08;2.65;;;1.67;;
59239;SDS011;45010;53.640;10.578;2024-03-06T15:30:08;2.13;;;1.65;;
59239;SDS011;45010;53.640;10.578;2024-03-06T15:33:09;1.60;;;1.50;;
59239;SDS011;45010;53.640;10.578;2024-03-06T15:36:09;1.88;;;1.48;;
59239;SDS011;45010;53.640;10.578;2024-03-06T15:39:10;1.65;;;1.50;;
59239;SDS011;45010;53.640;10.578;2024-03-06T15:42:10;1.92;;;1.73;;
59239;SDS011;45010;53.640;10.578;2024-03-06T15:45:10;2.15;;;1.40;;
59239;SDS011;45010;53.640;10.578;2024-03-06T15:48:11;2.10;;;1.80;;
59239;SDS011;45010;53.640;10.578;2024-03-06T15:51:14;2.08;;;1.88;;
59239;SDS011;45010;53.640;10.578;2024-03-06T15:54:14;2.60;;;1.33;;
59239;SDS011;45010;53.640;10.578;2024-03-06T15:57:14;1.90;;;1.50;;
59239;SDS011;45010;53.640;10.578;2024-03-06T16:00:18;3.38;;;1.63;;
59239;SDS011;45010;53.640;10.578;2024-03-06T16:03:18;1.63;;;1.50;;
59239;SDS011;45010;53.640;10.578;2024-03-06T16:06:19;1.92;;;1.65;;
59239;SDS011;45010;53.640;10.578;2024-03-06T16:09:19;1.90;;;1.70;;
59239;SDS011;45010;53.640;10.578;2024-03-06T16:12:20;1.83;;;1.52;;
59239;SDS011;45010;53.640;10.578;2024-03-06T16:15:20;1.77;;;1.30;;
59239;SDS011;45010;53.640;10.578;2024-03-06T16:18:20;1.50;;;1.40;;
59239;SDS011;45010;53.640;10.578;2024-03-06T16:21:21;2.63;;;1.63;;
59239;SDS011;45010;53.640;10.578;2024-03-06T16:24:21;2.17;;;1.45;;
59239;SDS011;45010;53.640;10.578;2024-03-06T16:27:22;1.95;;;1.60;;
59239;SDS011;45010;53.640;10.578;2024-03-06T16:30:22;2.55;;;1.70;;
59239;SDS011;45010;53.640;10.578;2024-03-06T16:33:23;1.40;;;1.30;;
59239;SDS011;45010;53.640;10.578;2024-03-06T16:36:24;1.83;;;1.65;;
59239;SDS011;45010;53.640;10.578;2024-03-06T16:39:24;1.73;;;1.20;;
59239;SDS011;45010;53.640;10.578;2024-03-06T16:42:24;1.40;;;1.30;;
59239;SDS011;45010;53.640;10.578;2024-03-06T16:45:25;2.83;;;1.42;;
59239;SDS011;45010;53.640;10.578;2024-03-06T16:48:25;1.85;;;1.33;;
59239;SDS011;45010;53.640;10.578;2024-03-06T16:51:25;1.33;;;1.23;;
59239;SDS011;45010;53.640;10.578;2024-03-06T16:54:28;2.17;;;1.50;;
59239;SDS011;45010;53.640;10.578;2024-03-06T16:57:29;1.67;;;1.58;;
59239;SDS011;45010;53.640;10.578;2024-03-06T17:00:29;1.88;;;1.50;;
59239;SDS011;45010;53.640;10.578;2024-03-06T17:03:29;2.08;;;1.63;;
59239;SDS011;45010;53.640;10.578;2024-03-06T17:06:30;4.95;;;1.70;;
59239;SDS011;45010;53.640;10.578;2024-03-06T17:09:31;2.08;;;1.40;;
59239;SDS011;45010;53.640;10.578;2024-03-06T17:12:31;3.25;;;1.40;;
59239;SDS011;45010;53.640;10.578;2024-03-06T17:15:31;2.05;;;1.52;;
59239;SDS011;45010;53.640;10.578;2024-03-06T17:18:32;1.80;;;1.67;;
59239;SDS011;45010;53.640;10.578;2024-03-06T17:21:32;3.67;;;1.50;;
59239;SDS011;45010;53.640;10.578;2024-03-06T17:24:36;2.67;;;1.55;;
59239;SDS011;45010;53.640;10.578;2024-03-06T17:27:36;1.42;;;1.33;;
59239;SDS011;45010;53.640;10.578;2024-03-06T17:30:37;1.77;;;1.38;;
59239;SDS011;45010;53.640;10.578;2024-03-06T17:33:37;1.55;;;1.45;;
59239;SDS011;45010;53.640;10.578;2024-03-06T17:36:37;1.45;;;1.35;;
59239;SDS011;45010;53.640;10.578;2024-03-06T17:39:40;1.52;;;1.42;;
59239;SDS011;45010;53.640;10.578;2024-03-06T17:42:40;1.65;;;1.42;;
59239;SDS011;45010;53.640;10.578;2024-03-06T17:45:42;1.73;;;1.52;;
59239;SDS011;45010;53.640;10.578;2024-03-06T17:48:43;1.42;;;1.33;;
59239;SDS011;45010;53.640;10.578;2024-03-06T17:51:43;2.33;;;1.73;;
59239;SDS011;45010;53.640;10.578;2024-03-06T17:54:44;1.40;;;1.30;;